createdAt,value
2023-05-09T00:00:11.253Z,101401.91
2023-05-09T00:03:14.411Z,101402.69
2023-05-09T00:06:17.498Z,101403.06
2023-05-09T00:09:19.831Z,101400.13
2023-05-09T00:12:22.186Z,101411.25
2023-05-09T00:15:25.731Z,101403.06
2023-05-09T00:18:31.143Z,101401.47
2023-05-09T00:21:34.260Z,101394.31
2023-05-09T00:24:36.558Z,101383.19
2023-05-09T00:27:38.904Z,101383.72
2023-05-09T00:30:41.265Z,101369.09
2023-05-09T00:33:43.684Z,101376.50
2023-05-09T00:36:46.161Z,101375.34
2023-05-09T00:39:48.776Z,101379.75
2023-05-09T00:42:51.585Z,101379.41
2023-05-09T00:45:54.183Z,101368.28
2023-05-09T00:48:56.958Z,101359.91
2023-05-09T00:51:59.393Z,101359.84
2023-05-09T00:55:02.378Z,101379.66
2023-05-09T00:58:04.807Z,101363.88
2023-05-09T01:01:08.415Z,101357.53
2023-05-09T01:04:12.396Z,101374.13
2023-05-09T01:07:30.070Z,101378.78
2023-05-09T01:10:44.940Z,101370.00
2023-05-09T01:13:56.481Z,101371.66
2023-05-09T01:17:24.661Z,101358.25
2023-05-09T01:20:51.483Z,101358.63
2023-05-09T01:24:17.635Z,101364.44
2023-05-09T01:27:45.314Z,101375.63
2023-05-09T01:30:51.765Z,101363.72
2023-05-09T01:33:57.251Z,101372.44
2023-05-09T01:37:01.022Z,101353.41
2023-05-09T01:40:31.346Z,101370.06
2023-05-09T01:43:33.997Z,101356.66
2023-05-09T01:46:38.252Z,101363.72
2023-05-09T01:49:41.737Z,101348.66
2023-05-09T01:52:44.824Z,101360.56
2023-05-09T01:55:47.445Z,101352.28
2023-05-09T01:58:51.276Z,101364.09
2023-05-09T02:01:55.382Z,101356.59
2023-05-09T02:04:57.957Z,101349.38
2023-05-09T02:08:00.956Z,101339.84
2023-05-09T02:11:03.417Z,101337.13
2023-05-09T02:14:06.478Z,101357.72
2023-05-09T02:17:10.827Z,101322.22
2023-05-09T02:20:13.594Z,101344.34
2023-05-09T02:23:16.068Z,101348.66
2023-05-09T02:26:18.575Z,101344.16
2023-05-09T02:29:22.223Z,101341.09
2023-05-09T02:32:28.223Z,101337.91
2023-05-09T02:35:30.688Z,101347.63
2023-05-09T02:38:33.108Z,101328.41
2023-05-09T02:41:35.658Z,101336.69
2023-05-09T02:44:38.917Z,101332.63
2023-05-09T02:47:41.406Z,101347.34
2023-05-09T02:50:44.380Z,101324.78
2023-05-09T02:53:46.836Z,101330.78
2023-05-09T02:56:49.295Z,101334.66
2023-05-09T02:59:51.768Z,101336.31
2023-05-09T03:02:54.840Z,101331.91
2023-05-09T03:05:57.304Z,101348.41
2023-05-09T03:08:59.757Z,101349.56
2023-05-09T03:12:03.977Z,101340.56
2023-05-09T03:15:07.497Z,101321.88
2023-05-09T03:18:10.123Z,101332.09
2023-05-09T03:21:12.867Z,101339.69
2023-05-09T03:24:15.975Z,101346.03
2023-05-09T03:27:18.905Z,101343.66
2023-05-09T03:30:22.090Z,101330.97
2023-05-09T03:33:25.445Z,101348.31
2023-05-09T03:36:28.779Z,101345.59
2023-05-09T03:39:31.801Z,101343.47
2023-05-09T03:42:34.198Z,101322.94
2023-05-09T03:45:38.468Z,101341.97
2023-05-09T03:48:43.037Z,101331.56
2023-05-09T03:51:45.507Z,101338.63
2023-05-09T03:54:51.253Z,101358.81
2023-05-09T03:57:54.443Z,101347.28
2023-05-09T04:00:57.680Z,101364.28
2023-05-09T04:04:01.714Z,101353.25
2023-05-09T04:07:07.763Z,101341.00
2023-05-09T04:10:11.575Z,101347.44
2023-05-09T04:13:14.040Z,101347.88
2023-05-09T04:16:17.189Z,101338.81
2023-05-09T04:19:19.651Z,101342.31
2023-05-09T04:22:22.026Z,101335.63
2023-05-09T04:25:26.232Z,101352.19
2023-05-09T04:28:28.785Z,101364.53
2023-05-09T04:31:32.319Z,101359.16
2023-05-09T04:34:36.139Z,101350.50
2023-05-09T04:37:45.504Z,101349.72
2023-05-09T04:40:47.919Z,101343.81
2023-05-09T04:43:50.762Z,101362.13
2023-05-09T04:46:55.197Z,101368.03
2023-05-09T04:49:57.715Z,101340.03
2023-05-09T04:53:00.168Z,101364.31
2023-05-09T04:56:02.987Z,101359.56
2023-05-09T04:59:07.101Z,101361.66
2023-05-09T05:02:10.394Z,101329.16
2023-05-09T05:05:13.223Z,101321.03
2023-05-09T05:08:18.296Z,101358.84
2023-05-09T05:11:21.638Z,101362.38
2023-05-09T05:14:24.401Z,101351.78
2023-05-09T05:17:29.547Z,101356.78
2023-05-09T05:20:34.518Z,101356.34
2023-05-09T05:23:37.220Z,101339.78
2023-05-09T05:26:39.761Z,101353.84
2023-05-09T05:29:42.365Z,101356.38
2023-05-09T05:32:44.961Z,101362.00
2023-05-09T05:35:49.219Z,101359.34
2023-05-09T05:38:51.709Z,101334.47
2023-05-09T05:41:54.331Z,101356.38
2023-05-09T05:44:56.909Z,101348.66
2023-05-09T05:47:59.924Z,101345.72
2023-05-09T05:51:02.669Z,101341.38
2023-05-09T05:54:07.543Z,101336.69
2023-05-09T05:57:11.822Z,101322.28
2023-05-09T06:00:15.396Z,101305.28
2023-05-09T06:03:26.139Z,101301.84
2023-05-09T06:06:37.492Z,101350.66
2023-05-09T06:09:41.198Z,101353.91
2023-05-09T06:12:44.078Z,101342.16
2023-05-09T06:15:46.736Z,101305.03
2023-05-09T06:18:49.420Z,101314.03
2023-05-09T06:21:52.029Z,101327.72
2023-05-09T06:28:24.949Z,101353.53
2023-05-09T06:31:28.516Z,101351.47
2023-05-09T06:34:58.282Z,101329.66
2023-05-09T06:38:00.861Z,101302.94
2023-05-09T06:41:03.868Z,101298.84
2023-05-09T06:44:28.615Z,101345.63
2023-05-09T06:47:36.852Z,101350.31
2023-05-09T06:56:48.707Z,101279.00
2023-05-09T06:59:22.768Z,101338.00
2023-05-09T07:02:27.071Z,101331.88
2023-05-09T07:05:29.756Z,101317.72
2023-05-09T07:08:32.252Z,101281.56
2023-05-09T07:11:36.192Z,101312.03
2023-05-09T07:14:40.734Z,101326.28
2023-05-09T07:17:46.988Z,101263.66
2023-05-09T07:20:49.527Z,101287.75
2023-05-09T07:23:51.998Z,101270.81
2023-05-09T07:26:54.667Z,101292.91
2023-05-09T07:29:57.061Z,101302.72
2023-05-09T07:32:59.739Z,101283.41
2023-05-09T07:36:02.655Z,101262.13
2023-05-09T07:39:08.432Z,101233.38
2023-05-09T07:42:11.008Z,101218.44
2023-05-09T07:45:13.627Z,101248.34
2023-05-09T07:48:16.465Z,101228.25
2023-05-09T07:51:18.875Z,101260.53
2023-05-09T07:54:21.541Z,101234.56
2023-05-09T07:57:26.468Z,101226.69
2023-05-09T08:00:29.093Z,101252.66
2023-05-09T08:03:31.648Z,101249.91
2023-05-09T08:06:34.158Z,101236.16
2023-05-09T08:09:39.563Z,101199.53
2023-05-09T08:12:42.222Z,101208.19
2023-05-09T08:15:44.907Z,101230.66
2023-05-09T08:18:47.637Z,101204.25
2023-05-09T08:21:50.148Z,101239.69
2023-05-09T08:24:52.595Z,101213.25
2023-05-09T08:27:55.212Z,101219.91
2023-05-09T08:30:57.918Z,101227.75
2023-05-09T08:34:03.632Z,101215.53
2023-05-09T08:37:06.288Z,101206.84
2023-05-09T08:40:10.212Z,101252.16
2023-05-09T08:43:13.473Z,101246.63
2023-05-09T08:46:16.708Z,101199.28
2023-05-09T08:50:01.170Z,101237.13
2023-05-09T08:53:03.829Z,101190.56
2023-05-09T08:56:06.623Z,101189.41
2023-05-09T08:59:09.949Z,101194.50
2023-05-09T09:02:14.565Z,101209.06
2023-05-09T09:05:39.295Z,101240.97
2023-05-09T09:08:40.561Z,101215.34
2023-05-09T09:11:43.625Z,101191.63
2023-05-09T09:14:49.449Z,101182.56
2023-05-09T09:17:56.838Z,101188.84
2023-05-09T09:21:07.327Z,101176.25
2023-05-09T09:24:13.122Z,101174.66
2023-05-09T09:27:15.716Z,101213.25
2023-05-09T09:30:18.607Z,101195.50
2023-05-09T09:33:26.267Z,101210.13
2023-05-09T09:39:32.251Z,101194.72
2023-05-09T09:42:44.426Z,101181.28
2023-05-09T09:45:51.503Z,101176.56
2023-05-09T09:48:57.773Z,101208.91
2023-05-09T09:52:00.476Z,101203.00
2023-05-09T09:55:03.404Z,101203.75
2023-05-09T09:58:17.214Z,101201.75
2023-05-09T10:01:20.919Z,101199.00
2023-05-09T10:04:24.134Z,101185.19
2023-05-09T10:07:27.090Z,101162.00
2023-05-09T10:10:34.775Z,101178.56
2023-05-09T10:13:38.607Z,101174.19
2023-05-09T10:16:44.658Z,101152.56
2023-05-09T10:19:47.890Z,101156.09
2023-05-09T10:22:51.275Z,101169.88
2023-05-09T10:26:42.437Z,101177.75
2023-05-09T10:29:48.411Z,101162.78
2023-05-09T10:33:03.929Z,101167.91
2023-05-09T10:36:07.158Z,101119.06
2023-05-09T10:39:10.012Z,101149.38
2023-05-09T10:42:14.125Z,101151.75
2023-05-09T10:45:16.874Z,101169.84
2023-05-09T10:48:19.891Z,101167.50
2023-05-09T10:51:24.705Z,101156.47
2023-05-09T10:54:33.721Z,101146.19
2023-05-09T10:57:39.533Z,101145.84
2023-05-09T11:00:42.565Z,101125.69
2023-05-09T11:04:00.032Z,101142.59
2023-05-09T11:07:03.181Z,101142.19
2023-05-09T11:10:09.971Z,101152.47
2023-05-09T11:13:12.502Z,101157.97
2023-05-09T11:16:14.970Z,101153.28
2023-05-09T11:19:37.223Z,101146.19
2023-05-09T11:22:42.426Z,101118.22
2023-05-09T11:25:49.402Z,101133.22
2023-05-09T11:28:53.797Z,101124.16
2023-05-09T11:32:07.334Z,101130.53
2023-05-09T11:35:15.646Z,101110.44
2023-05-09T11:38:22.053Z,101095.84
2023-05-09T11:41:24.717Z,101069.00
2023-05-09T11:44:28.213Z,101131.28
2023-05-09T11:47:31.018Z,101113.63
2023-05-09T11:50:36.352Z,101088.00
2023-05-09T11:53:48.201Z,101118.66
2023-05-09T11:56:53.596Z,101092.22
2023-05-09T11:59:58.676Z,101108.41
2023-05-09T12:03:01.223Z,101060.66
2023-05-09T12:06:03.766Z,101107.59
2023-05-09T12:09:06.712Z,101100.09
2023-05-09T12:12:13.982Z,101097.72
2023-05-09T12:15:17.635Z,101085.13
2023-05-09T12:18:20.477Z,101058.00
2023-05-09T12:21:23.112Z,101076.91
2023-05-09T12:24:30.005Z,101068.22
2023-05-09T12:27:33.229Z,101033.97
2023-05-09T12:30:36.107Z,101028.16
2023-05-09T12:33:38.934Z,101060.44
2023-05-09T12:36:50.745Z,101068.00
2023-05-09T12:40:15.483Z,101055.81
2023-05-09T12:43:18.235Z,101067.22
2023-05-09T12:46:22.087Z,101059.34
2023-05-09T12:49:25.344Z,101038.78
2023-05-09T12:52:35.362Z,101060.50
2023-05-09T12:55:41.735Z,101034.91
2023-05-09T12:58:54.556Z,101020.34
2023-05-09T13:01:58.697Z,101035.72
2023-05-09T13:05:08.298Z,101032.66
2023-05-09T13:08:11.487Z,101021.16
2023-05-09T13:11:16.641Z,101025.91
2023-05-09T13:14:21.816Z,101007.06
2023-05-09T13:17:24.300Z,101014.91
2023-05-09T13:20:26.722Z,100996.34
2023-05-09T13:23:29.152Z,100971.56
2023-05-09T13:26:31.750Z,100939.28
2023-05-09T13:29:34.118Z,100988.06
2023-05-09T13:32:39.287Z,100975.88
2023-05-09T13:35:41.825Z,100990.84
2023-05-09T13:38:45.716Z,100991.63
2023-05-09T13:41:48.823Z,100986.53
2023-05-09T13:44:51.288Z,101003.22
2023-05-09T13:47:53.763Z,100979.31
2023-05-09T13:50:57.876Z,100973.91
2023-05-09T13:54:00.221Z,100990.81
2023-05-09T13:57:05.574Z,100990.75
2023-05-09T14:00:08.768Z,100994.66
2023-05-09T14:03:15.103Z,100983.16
2023-05-09T14:06:17.483Z,100983.13
2023-05-09T14:09:22.254Z,100978.81
2023-05-09T14:12:24.660Z,100967.41
2023-05-09T14:15:27.063Z,100944.16
2023-05-09T14:18:29.499Z,100932.34
2023-05-09T14:21:31.897Z,100957.53
2023-05-09T14:24:36.129Z,100963.84
2023-05-09T14:27:38.697Z,100961.84
2023-05-09T14:30:41.287Z,100944.13
2023-05-09T14:33:44.155Z,100962.63
2023-05-09T14:36:46.852Z,100945.25
2023-05-09T14:39:49.807Z,100932.28
2023-05-09T14:42:52.178Z,100956.31
2023-05-09T14:45:55.117Z,100937.03
2023-05-09T14:49:03.991Z,100959.03
2023-05-09T14:52:06.410Z,100923.22
2023-05-09T14:55:09.294Z,100935.81
2023-05-09T14:58:14.039Z,100918.50
2023-05-09T15:01:16.554Z,100950.75
2023-05-09T15:04:19.054Z,100919.31
2023-05-09T15:07:21.549Z,100946.03
2023-05-09T15:10:24.079Z,100926.75
2023-05-09T15:13:26.571Z,100908.66
2023-05-09T15:16:29.231Z,100926.78
2023-05-09T15:19:32.497Z,100906.69
2023-05-09T15:22:34.974Z,100924.03
2023-05-09T15:25:37.323Z,100902.38
2023-05-09T15:28:40.082Z,100885.47
2023-05-09T15:31:42.734Z,100904.28
2023-05-09T15:34:45.126Z,100875.22
2023-05-09T15:37:47.495Z,100901.97
2023-05-09T15:40:50.071Z,100878.38
2023-05-09T15:43:52.764Z,100884.25
2023-05-09T15:46:57.035Z,100852.00
2023-05-09T15:49:59.449Z,100876.44
2023-05-09T15:53:01.822Z,100877.97
2023-05-09T15:56:04.520Z,100884.69
2023-05-09T15:59:07.156Z,100871.69
2023-05-09T16:02:09.558Z,100889.78
2023-05-09T16:05:12.521Z,100876.47
2023-05-09T16:08:14.983Z,100862.66
2023-05-09T16:11:17.419Z,100847.31
2023-05-09T16:14:20.222Z,100837.06
2023-05-09T16:17:22.874Z,100846.50
2023-05-09T16:20:25.254Z,100851.94
2023-05-09T16:23:27.748Z,100877.59
2023-05-09T16:26:30.644Z,100870.91
2023-05-09T16:29:35.459Z,100861.00
2023-05-09T16:32:38.292Z,100841.38
2023-05-09T16:35:41.165Z,100837.41
2023-05-09T16:38:43.704Z,100873.59
2023-05-09T16:41:46.305Z,100809.41
2023-05-09T16:44:49.083Z,100849.59
2023-05-09T16:47:51.556Z,100842.50
2023-05-09T16:50:54.070Z,100837.00
2023-05-09T16:53:56.554Z,100840.91
2023-05-09T16:56:58.934Z,100844.06
2023-05-09T17:00:01.464Z,100846.44
2023-05-09T17:03:03.929Z,100843.66
2023-05-09T17:06:06.838Z,100841.28
2023-05-09T17:09:09.318Z,100831.06
2023-05-09T17:12:17.541Z,100829.88
2023-05-09T17:15:20.090Z,100831.00
2023-05-09T17:18:35.905Z,100824.69
2023-05-09T17:21:41.537Z,100832.91
2023-05-09T17:24:44.135Z,100860.06
2023-05-09T17:27:46.570Z,100809.28
2023-05-09T17:30:48.924Z,100813.25
2023-05-09T17:33:51.341Z,100832.88
2023-05-09T17:36:53.943Z,100842.66
2023-05-09T17:39:56.460Z,100849.75
2023-05-09T17:42:59.318Z,100824.19
2023-05-09T17:46:01.819Z,100813.91
2023-05-09T17:49:04.192Z,100828.88
2023-05-09T17:52:06.933Z,100853.28
2023-05-09T17:55:10.123Z,100853.66
2023-05-09T17:58:12.860Z,100857.16
2023-05-09T18:01:15.726Z,100829.09
2023-05-09T18:04:19.073Z,100860.66
2023-05-09T18:07:21.459Z,100821.22
2023-05-09T18:10:23.832Z,100847.19
2023-05-09T18:13:26.736Z,100844.75
2023-05-09T18:16:29.367Z,100863.63
2023-05-09T18:19:32.035Z,100839.97
2023-05-09T18:22:34.603Z,100862.41
2023-05-09T18:25:38.684Z,100881.25
2023-05-09T18:28:41.445Z,100854.03
2023-05-09T18:31:43.939Z,100865.06
2023-05-09T18:34:48.542Z,100863.72
2023-05-09T18:37:51.464Z,100864.53
2023-05-09T18:40:54.088Z,100828.31
2023-05-09T18:43:57.926Z,100889.34
2023-05-09T18:47:00.594Z,100842.41
2023-05-09T18:50:04.700Z,100857.34
2023-05-09T18:53:07.549Z,100866.78
2023-05-09T18:56:10.056Z,100884.06
2023-05-09T18:59:13.795Z,100876.91
2023-05-09T19:02:16.899Z,100886.28
2023-05-09T19:05:20.586Z,100877.22
2023-05-09T19:08:23.424Z,100857.97
2023-05-09T19:11:25.854Z,100849.63
2023-05-09T19:14:28.302Z,100879.91
2023-05-09T19:17:31.781Z,100879.91
2023-05-09T19:20:34.434Z,100899.16
2023-05-09T19:23:36.967Z,100903.47
2023-05-09T19:26:39.328Z,100882.56
2023-05-09T19:29:41.801Z,100866.00
2023-05-09T19:32:44.439Z,100881.41
2023-05-09T19:35:47.057Z,100880.16
2023-05-09T19:38:49.629Z,100874.16
2023-05-09T19:41:52.248Z,100869.41
2023-05-09T19:44:54.850Z,100884.31
2023-05-09T19:47:59.068Z,100881.97
2023-05-09T19:51:01.758Z,100868.13
2023-05-09T19:54:04.763Z,100868.09
2023-05-09T19:57:07.304Z,100893.00
2023-05-09T20:00:10.118Z,100900.06
2023-05-09T20:03:14.513Z,100881.13
2023-05-09T20:06:17.164Z,100866.06
2023-05-09T20:09:21.105Z,100872.00
2023-05-09T20:12:23.615Z,100868.41
2023-05-09T20:15:26.063Z,100877.84
2023-05-09T20:18:28.634Z,100866.47
2023-05-09T20:21:31.094Z,100854.97
2023-05-09T20:24:33.717Z,100848.34
2023-05-09T20:27:37.413Z,100866.06
2023-05-09T20:30:39.941Z,100852.56
2023-05-09T20:33:42.383Z,100866.38
2023-05-09T20:36:52.190Z,100874.69
2023-05-09T20:39:55.821Z,100868.31
2023-05-09T20:42:58.181Z,100868.31
2023-05-09T20:46:01.078Z,100870.28
2023-05-09T20:49:06.551Z,100850.22
2023-05-09T20:52:08.901Z,100884.47
2023-05-09T20:55:11.457Z,100865.91
2023-05-09T20:58:14.931Z,100851.75
2023-05-09T21:01:17.439Z,100850.19
2023-05-09T21:04:20.000Z,100883.19
2023-05-09T21:07:22.792Z,100839.94
2023-05-09T21:10:25.985Z,100843.78
2023-05-09T21:13:28.523Z,100851.72
2023-05-09T21:16:31.086Z,100872.59
2023-05-09T21:19:34.261Z,100850.91
2023-05-09T21:22:37.052Z,100864.28
2023-05-09T21:25:39.438Z,100831.97
2023-05-09T21:28:42.154Z,100843.38
2023-05-09T21:31:44.606Z,100838.66
2023-05-09T21:34:47.845Z,100867.00
2023-05-09T21:37:52.639Z,100824.41
2023-05-09T21:40:55.393Z,100838.16
2023-05-09T21:43:57.794Z,100822.44
2023-05-09T21:47:00.403Z,100846.44
2023-05-09T21:50:04.254Z,100855.09
2023-05-09T21:53:06.652Z,100859.91
2023-05-09T21:56:09.117Z,100826.28
2023-05-09T21:59:11.724Z,100841.28
2023-05-09T22:02:14.556Z,100833.38
2023-05-09T22:05:17.008Z,100830.97
2023-05-09T22:08:19.474Z,100842.13
2023-05-09T22:11:22.281Z,100830.66
2023-05-09T22:14:24.785Z,100810.56
2023-05-09T22:17:27.154Z,100853.59
2023-05-09T22:20:29.575Z,100833.81
2023-05-09T22:23:31.934Z,100851.56
2023-05-09T22:26:34.500Z,100846.84
2023-05-09T22:29:37.229Z,100850.41
2023-05-09T22:32:40.307Z,100832.75
2023-05-09T22:35:42.702Z,100853.16
2023-05-09T22:38:45.031Z,100857.41
2023-05-09T22:41:47.747Z,100811.38
2023-05-09T22:44:50.833Z,100846.09
2023-05-09T22:47:53.273Z,100826.75
2023-05-09T22:50:55.840Z,100839.84
2023-05-09T22:53:58.595Z,100830.34
2023-05-09T22:57:01.015Z,100813.09
2023-05-09T23:00:04.818Z,100768.16
2023-05-09T23:03:07.486Z,100773.69
2023-05-09T23:06:09.968Z,100786.75
2023-05-09T23:09:12.463Z,100801.63
2023-05-09T23:12:17.535Z,100807.56
2023-05-09T23:15:27.747Z,100793.00
2023-05-09T23:18:31.108Z,100807.16
2023-05-09T23:21:33.883Z,100811.53
2023-05-09T23:24:36.562Z,100812.25
2023-05-09T23:27:40.754Z,100811.94
2023-05-09T23:30:43.125Z,100809.94
2023-05-09T23:33:45.629Z,100829.69
2023-05-09T23:36:47.999Z,100797.75
2023-05-09T23:39:50.338Z,100825.81
2023-05-09T23:42:52.842Z,100787.13
2023-05-09T23:45:56.715Z,100799.00
2023-05-09T23:48:59.152Z,100818.75
2023-05-09T23:52:01.512Z,100786.97
2023-05-09T23:55:04.302Z,100805.50
2023-05-09T23:58:06.687Z,100807.47
